sensor_id;sensor_type;location;lat;lon;timestamp;P1;durP1;ratioP1;P2;durP2;ratioP2
7493;SDS011;3788;49.902;8.590;2023-07-09T00:00:27;3.10;;;2.60;;
7493;SDS011;3788;49.902;8.590;2023-07-09T00:02:55;3.23;;;2.60;;
7493;SDS011;3788;49.902;8.590;2023-07-09T00:05:23;2.73;;;2.47;;
7493;SDS011;3788;49.902;8.590;2023-07-09T00:07:49;3.10;;;2.47;;
7493;SDS011;3788;49.902;8.590;2023-07-09T00:10:17;3.87;;;3.00;;
7493;SDS011;3788;49.902;8.590;2023-07-09T00:12:45;4.40;;;3.00;;
7493;SDS011;3788;49.902;8.590;2023-07-09T00:15:14;2.93;;;2.60;;
7493;SDS011;3788;49.902;8.590;2023-07-09T00:17:43;3.00;;;2.53;;
7493;SDS011;3788;49.902;8.590;2023-07-09T00:20:12;4.63;;;3.10;;
7493;SDS011;3788;49.902;8.590;2023-07-09T00:22:42;2.67;;;2.30;;
7493;SDS011;3788;49.902;8.590;2023-07-09T00:25:17;3.17;;;2.77;;
7493;SDS011;3788;49.902;8.590;2023-07-09T00:27:45;2.67;;;2.47;;
7493;SDS011;3788;49.902;8.590;2023-07-09T00:30:15;3.43;;;2.67;;
7493;SDS011;3788;49.902;8.590;2023-07-09T00:32:43;3.23;;;2.50;;
7493;SDS011;3788;49.902;8.590;2023-07-09T00:35:12;2.70;;;2.50;;
7493;SDS011;3788;49.902;8.590;2023-07-09T00:37:40;3.30;;;2.33;;
7493;SDS011;3788;49.902;8.590;2023-07-09T00:40:10;2.83;;;2.63;;
7493;SDS011;3788;49.902;8.590;2023-07-09T00:42:42;3.03;;;2.73;;
7493;SDS011;3788;49.902;8.590;2023-07-09T00:45:16;3.97;;;2.63;;
7493;SDS011;3788;49.902;8.590;2023-07-09T00:47:46;3.10;;;2.70;;
7493;SDS011;3788;49.902;8.590;2023-07-09T00:50:22;2.87;;;2.43;;
7493;SDS011;3788;49.902;8.590;2023-07-09T00:52:55;3.10;;;2.57;;
7493;SDS011;3788;49.902;8.590;2023-07-09T00:55:30;3.40;;;2.60;;
7493;SDS011;3788;49.902;8.590;2023-07-09T00:58:01;4.43;;;3.03;;
7493;SDS011;3788;49.902;8.590;2023-07-09T01:00:31;2.60;;;2.37;;
7493;SDS011;3788;49.902;8.590;2023-07-09T01:03:07;2.90;;;2.60;;
7493;SDS011;3788;49.902;8.590;2023-07-09T01:05:36;3.13;;;2.80;;
7493;SDS011;3788;49.902;8.590;2023-07-09T01:08:05;4.33;;;3.13;;
7493;SDS011;3788;49.902;8.590;2023-07-09T01:10:33;2.97;;;2.30;;
7493;SDS011;3788;49.902;8.590;2023-07-09T01:13:00;2.87;;;2.63;;
7493;SDS011;3788;49.902;8.590;2023-07-09T01:15:28;2.93;;;2.63;;
7493;SDS011;3788;49.902;8.590;2023-07-09T01:17:54;3.03;;;2.70;;
7493;SDS011;3788;49.902;8.590;2023-07-09T01:20:21;3.27;;;2.80;;
7493;SDS011;3788;49.902;8.590;2023-07-09T01:22:50;2.80;;;2.60;;
7493;SDS011;3788;49.902;8.590;2023-07-09T01:25:19;3.20;;;2.90;;
7493;SDS011;3788;49.902;8.590;2023-07-09T01:27:46;4.13;;;2.50;;
7493;SDS011;3788;49.902;8.590;2023-07-09T01:30:16;3.10;;;2.80;;
7493;SDS011;3788;49.902;8.590;2023-07-09T01:32:47;2.70;;;2.50;;
7493;SDS011;3788;49.902;8.590;2023-07-09T01:35:15;2.33;;;2.20;;
7493;SDS011;3788;49.902;8.590;2023-07-09T01:37:43;2.83;;;2.53;;
7493;SDS011;3788;49.902;8.590;2023-07-09T01:40:13;3.03;;;2.60;;
7493;SDS011;3788;49.902;8.590;2023-07-09T01:42:42;2.80;;;2.50;;
7493;SDS011;3788;49.902;8.590;2023-07-09T01:45:09;3.77;;;2.53;;
7493;SDS011;3788;49.902;8.590;2023-07-09T01:47:37;3.33;;;2.47;;
7493;SDS011;3788;49.902;8.590;2023-07-09T01:50:04;3.07;;;2.77;;
7493;SDS011;3788;49.902;8.590;2023-07-09T01:52:32;4.87;;;3.13;;
7493;SDS011;3788;49.902;8.590;2023-07-09T01:55:00;3.60;;;3.30;;
7493;SDS011;3788;49.902;8.590;2023-07-09T01:57:28;4.50;;;3.43;;
7493;SDS011;3788;49.902;8.590;2023-07-09T01:59:58;4.63;;;3.30;;
7493;SDS011;3788;49.902;8.590;2023-07-09T02:02:26;3.40;;;2.90;;
7493;SDS011;3788;49.902;8.590;2023-07-09T02:04:54;2.90;;;2.53;;
7493;SDS011;3788;49.902;8.590;2023-07-09T02:07:22;2.60;;;2.40;;
7493;SDS011;3788;49.902;8.590;2023-07-09T02:09:50;2.60;;;2.30;;
7493;SDS011;3788;49.902;8.590;2023-07-09T02:12:17;3.30;;;2.97;;
7493;SDS011;3788;49.902;8.590;2023-07-09T02:14:45;3.20;;;2.90;;
7493;SDS011;3788;49.902;8.590;2023-07-09T02:17:13;2.70;;;2.50;;
7493;SDS011;3788;49.902;8.590;2023-07-09T02:19:40;2.90;;;2.60;;
7493;SDS011;3788;49.902;8.590;2023-07-09T02:22:07;2.93;;;2.70;;
7493;SDS011;3788;49.902;8.590;2023-07-09T02:24:35;3.63;;;2.90;;
7493;SDS011;3788;49.902;8.590;2023-07-09T02:27:02;3.30;;;2.87;;
7493;SDS011;3788;49.902;8.590;2023-07-09T02:29:31;3.03;;;2.73;;
7493;SDS011;3788;49.902;8.590;2023-07-09T02:32:00;3.00;;;2.40;;
7493;SDS011;3788;49.902;8.590;2023-07-09T02:34:28;3.23;;;2.90;;
7493;SDS011;3788;49.902;8.590;2023-07-09T02:36:56;3.30;;;2.57;;
7493;SDS011;3788;49.902;8.590;2023-07-09T02:39:24;3.27;;;2.83;;
7493;SDS011;3788;49.902;8.590;2023-07-09T02:41:51;3.17;;;2.57;;
7493;SDS011;3788;49.902;8.590;2023-07-09T02:44:18;4.07;;;2.87;;
7493;SDS011;3788;49.902;8.590;2023-07-09T02:46:45;2.97;;;2.47;;
7493;SDS011;3788;49.902;8.590;2023-07-09T02:49:14;3.33;;;3.03;;
7493;SDS011;3788;49.902;8.590;2023-07-09T02:51:41;3.10;;;2.80;;
7493;SDS011;3788;49.902;8.590;2023-07-09T02:54:10;3.30;;;3.00;;
7493;SDS011;3788;49.902;8.590;2023-07-09T02:56:37;5.17;;;2.83;;
7493;SDS011;3788;49.902;8.590;2023-07-09T02:59:04;2.67;;;2.47;;
7493;SDS011;3788;49.902;8.590;2023-07-09T03:01:31;3.10;;;2.77;;
7493;SDS011;3788;49.902;8.590;2023-07-09T03:03:59;2.70;;;2.50;;
7493;SDS011;3788;49.902;8.590;2023-07-09T03:06:30;2.90;;;2.60;;
7493;SDS011;3788;49.902;8.590;2023-07-09T03:08:58;3.33;;;3.03;;
7493;SDS011;3788;49.902;8.590;2023-07-09T03:11:27;3.63;;;2.63;;
7493;SDS011;3788;49.902;8.590;2023-07-09T03:13:55;2.77;;;2.57;;
7493;SDS011;3788;49.902;8.590;2023-07-09T03:16:22;3.20;;;2.90;;
7493;SDS011;3788;49.902;8.590;2023-07-09T03:18:49;2.83;;;2.63;;
7493;SDS011;3788;49.902;8.590;2023-07-09T03:21:15;2.80;;;2.60;;
7493;SDS011;3788;49.902;8.590;2023-07-09T03:23:43;2.73;;;2.53;;
7493;SDS011;3788;49.902;8.590;2023-07-09T03:26:10;4.03;;;3.40;;
7493;SDS011;3788;49.902;8.590;2023-07-09T03:28:37;3.23;;;2.90;;
7493;SDS011;3788;49.902;8.590;2023-07-09T03:31:04;2.97;;;2.67;;
7493;SDS011;3788;49.902;8.590;2023-07-09T03:33:30;3.00;;;2.70;;
7493;SDS011;3788;49.902;8.590;2023-07-09T03:35:57;3.60;;;2.77;;
7493;SDS011;3788;49.902;8.590;2023-07-09T03:40:53;3.10;;;2.80;;
7493;SDS011;3788;49.902;8.590;2023-07-09T03:43:21;3.13;;;2.83;;
7493;SDS011;3788;49.902;8.590;2023-07-09T03:45:48;3.23;;;2.93;;
7493;SDS011;3788;49.902;8.590;2023-07-09T03:48:16;3.67;;;3.00;;
7493;SDS011;3788;49.902;8.590;2023-07-09T03:50:44;4.70;;;3.27;;
7493;SDS011;3788;49.902;8.590;2023-07-09T03:53:13;3.47;;;3.10;;
7493;SDS011;3788;49.902;8.590;2023-07-09T03:55:40;3.83;;;3.20;;
7493;SDS011;3788;49.902;8.590;2023-07-09T03:58:08;3.10;;;2.80;;
7493;SDS011;3788;49.902;8.590;2023-07-09T04:00:35;3.70;;;3.30;;
7493;SDS011;3788;49.902;8.590;2023-07-09T04:03:02;2.97;;;2.70;;
7493;SDS011;3788;49.902;8.590;2023-07-09T04:05:28;3.87;;;3.17;;
7493;SDS011;3788;49.902;8.590;2023-07-09T04:07:55;3.57;;;3.00;;
7493;SDS011;3788;49.902;8.590;2023-07-09T04:10:22;3.20;;;2.90;;
7493;SDS011;3788;49.902;8.590;2023-07-09T04:12:49;3.93;;;3.33;;
7493;SDS011;3788;49.902;8.590;2023-07-09T04:15:17;3.40;;;3.10;;
7493;SDS011;3788;49.902;8.590;2023-07-09T04:17:43;3.33;;;2.80;;
7493;SDS011;3788;49.902;8.590;2023-07-09T04:20:10;3.43;;;3.13;;
7493;SDS011;3788;49.902;8.590;2023-07-09T04:22:39;3.10;;;2.80;;
7493;SDS011;3788;49.902;8.590;2023-07-09T04:25:06;4.00;;;3.57;;
7493;SDS011;3788;49.902;8.590;2023-07-09T04:27:35;3.53;;;3.23;;
7493;SDS011;3788;49.902;8.590;2023-07-09T04:30:02;3.93;;;3.40;;
7493;SDS011;3788;49.902;8.590;2023-07-09T04:32:31;3.67;;;3.30;;
7493;SDS011;3788;49.902;8.590;2023-07-09T04:34:58;3.60;;;3.13;;
7493;SDS011;3788;49.902;8.590;2023-07-09T04:37:25;3.53;;;3.23;;
7493;SDS011;3788;49.902;8.590;2023-07-09T04:39:52;3.77;;;3.27;;
7493;SDS011;3788;49.902;8.590;2023-07-09T04:42:18;3.10;;;2.80;;
7493;SDS011;3788;49.902;8.590;2023-07-09T04:44:45;3.77;;;3.47;;
7493;SDS011;3788;49.902;8.590;2023-07-09T04:47:12;4.77;;;3.43;;
7493;SDS011;3788;49.902;8.590;2023-07-09T04:49:41;3.97;;;3.57;;
7493;SDS011;3788;49.902;8.590;2023-07-09T04:52:07;3.50;;;3.20;;
7493;SDS011;3788;49.902;8.590;2023-07-09T04:54:37;3.77;;;3.43;;
7493;SDS011;3788;49.902;8.590;2023-07-09T04:57:05;3.40;;;3.10;;
7493;SDS011;3788;49.902;8.590;2023-07-09T04:59:32;3.50;;;3.20;;
7493;SDS011;3788;49.902;8.590;2023-07-09T05:01:59;3.00;;;2.80;;
7493;SDS011;3788;49.902;8.590;2023-07-09T05:04:26;3.30;;;3.00;;
7493;SDS011;3788;49.902;8.590;2023-07-09T05:06:54;3.80;;;3.50;;
7493;SDS011;3788;49.902;8.590;2023-07-09T05:09:21;2.90;;;2.57;;
7493;SDS011;3788;49.902;8.590;2023-07-09T05:11:48;3.50;;;3.20;;
7493;SDS011;3788;49.902;8.590;2023-07-09T05:14:16;3.50;;;3.00;;
7493;SDS011;3788;49.902;8.590;2023-07-09T05:16:43;3.53;;;2.93;;
7493;SDS011;3788;49.902;8.590;2023-07-09T05:19:11;3.63;;;3.10;;
7493;SDS011;3788;49.902;8.590;2023-07-09T05:21:37;3.30;;;3.00;;
7493;SDS011;3788;49.902;8.590;2023-07-09T05:24:06;3.73;;;3.00;;
7493;SDS011;3788;49.902;8.590;2023-07-09T05:26:33;3.60;;;3.30;;
7493;SDS011;3788;49.902;8.590;2023-07-09T05:29:01;4.60;;;3.13;;
7493;SDS011;3788;49.902;8.590;2023-07-09T05:31:29;3.93;;;3.07;;
7493;SDS011;3788;49.902;8.590;2023-07-09T05:33:55;3.73;;;3.30;;
7493;SDS011;3788;49.902;8.590;2023-07-09T05:36:22;3.40;;;3.10;;
7493;SDS011;3788;49.902;8.590;2023-07-09T05:38:49;3.27;;;2.97;;
7493;SDS011;3788;49.902;8.590;2023-07-09T05:41:17;4.20;;;3.80;;
7493;SDS011;3788;49.902;8.590;2023-07-09T05:43:44;3.73;;;3.17;;
7493;SDS011;3788;49.902;8.590;2023-07-09T05:46:12;3.60;;;3.30;;
7493;SDS011;3788;49.902;8.590;2023-07-09T05:48:39;3.80;;;3.40;;
7493;SDS011;3788;49.902;8.590;2023-07-09T05:51:06;4.10;;;3.17;;
7493;SDS011;3788;49.902;8.590;2023-07-09T05:53:33;3.70;;;3.30;;
7493;SDS011;3788;49.902;8.590;2023-07-09T05:56:00;3.87;;;3.40;;
7493;SDS011;3788;49.902;8.590;2023-07-09T05:58:28;2.80;;;2.60;;
7493;SDS011;3788;49.902;8.590;2023-07-09T06:00:55;2.90;;;2.70;;
7493;SDS011;3788;49.902;8.590;2023-07-09T06:03:24;3.60;;;3.30;;
7493;SDS011;3788;49.902;8.590;2023-07-09T06:05:52;3.23;;;2.93;;
7493;SDS011;3788;49.902;8.590;2023-07-09T06:08:19;3.27;;;2.97;;
7493;SDS011;3788;49.902;8.590;2023-07-09T06:10:53;2.77;;;2.57;;
7493;SDS011;3788;49.902;8.590;2023-07-09T06:13:20;3.03;;;2.80;;
7493;SDS011;3788;49.902;8.590;2023-07-09T06:15:49;3.73;;;3.40;;
7493;SDS011;3788;49.902;8.590;2023-07-09T06:18:17;4.00;;;3.60;;
7493;SDS011;3788;49.902;8.590;2023-07-09T06:20:48;3.93;;;3.47;;
7493;SDS011;3788;49.902;8.590;2023-07-09T06:23:15;3.67;;;3.37;;
7493;SDS011;3788;49.902;8.590;2023-07-09T06:25:42;3.67;;;3.33;;
7493;SDS011;3788;49.902;8.590;2023-07-09T06:28:12;3.90;;;3.10;;
7493;SDS011;3788;49.902;8.590;2023-07-09T06:30:39;3.83;;;3.17;;
7493;SDS011;3788;49.902;8.590;2023-07-09T06:33:08;3.53;;;3.23;;
7493;SDS011;3788;49.902;8.590;2023-07-09T06:35:36;4.90;;;3.47;;
7493;SDS011;3788;49.902;8.590;2023-07-09T06:38:03;3.97;;;3.40;;
7493;SDS011;3788;49.902;8.590;2023-07-09T06:40:30;4.07;;;3.67;;
7493;SDS011;3788;49.902;8.590;2023-07-09T06:42:56;3.97;;;3.57;;
7493;SDS011;3788;49.902;8.590;2023-07-09T06:45:23;3.57;;;3.10;;
7493;SDS011;3788;49.902;8.590;2023-07-09T06:47:50;4.00;;;3.60;;
7493;SDS011;3788;49.902;8.590;2023-07-09T06:50:18;3.73;;;3.43;;
7493;SDS011;3788;49.902;8.590;2023-07-09T06:52:45;3.70;;;3.30;;
7493;SDS011;3788;49.902;8.590;2023-07-09T06:55:12;5.53;;;3.83;;
7493;SDS011;3788;49.902;8.590;2023-07-09T06:57:39;4.33;;;3.80;;
7493;SDS011;3788;49.902;8.590;2023-07-09T07:00:06;5.27;;;3.23;;
7493;SDS011;3788;49.902;8.590;2023-07-09T07:02:34;4.67;;;3.60;;
7493;SDS011;3788;49.902;8.590;2023-07-09T07:05:01;3.63;;;3.33;;
7493;SDS011;3788;49.902;8.590;2023-07-09T07:07:29;4.20;;;3.80;;
7493;SDS011;3788;49.902;8.590;2023-07-09T07:09:56;3.80;;;3.40;;
7493;SDS011;3788;49.902;8.590;2023-07-09T07:12:23;4.90;;;4.40;;
7493;SDS011;3788;49.902;8.590;2023-07-09T07:14:51;4.70;;;3.93;;
7493;SDS011;3788;49.902;8.590;2023-07-09T07:17:18;4.73;;;4.23;;
7493;SDS011;3788;49.902;8.590;2023-07-09T07:19:44;4.97;;;3.63;;
7493;SDS011;3788;49.902;8.590;2023-07-09T07:22:11;4.17;;;3.77;;
7493;SDS011;3788;49.902;8.590;2023-07-09T07:24:39;4.90;;;3.60;;
7493;SDS011;3788;49.902;8.590;2023-07-09T07:27:07;4.00;;;3.60;;
7493;SDS011;3788;49.902;8.590;2023-07-09T07:29:34;4.23;;;3.83;;
7493;SDS011;3788;49.902;8.590;2023-07-09T07:32:00;4.33;;;3.60;;
7493;SDS011;3788;49.902;8.590;2023-07-09T07:34:27;5.70;;;4.20;;
7493;SDS011;3788;49.902;8.590;2023-07-09T07:36:54;3.57;;;3.27;;
7493;SDS011;3788;49.902;8.590;2023-07-09T07:39:20;3.87;;;3.47;;
7493;SDS011;3788;49.902;8.590;2023-07-09T07:41:49;3.97;;;3.57;;
7493;SDS011;3788;49.902;8.590;2023-07-09T07:44:16;4.20;;;3.30;;
7493;SDS011;3788;49.902;8.590;2023-07-09T07:46:43;3.97;;;3.57;;
7493;SDS011;3788;49.902;8.590;2023-07-09T07:49:09;3.77;;;3.43;;
7493;SDS011;3788;49.902;8.590;2023-07-09T07:51:36;4.07;;;3.67;;
7493;SDS011;3788;49.902;8.590;2023-07-09T07:54:03;7.03;;;3.90;;
7493;SDS011;3788;49.902;8.590;2023-07-09T07:56:38;4.43;;;3.53;;
7493;SDS011;3788;49.902;8.590;2023-07-09T07:59:06;4.03;;;3.28;;
7493;SDS011;3788;49.902;8.590;2023-07-09T08:01:32;3.45;;;3.15;;
7493;SDS011;3788;49.902;8.590;2023-07-09T08:04:00;3.67;;;3.30;;
7493;SDS011;3788;49.902;8.590;2023-07-09T08:06:27;3.33;;;3.03;;
7493;SDS011;3788;49.902;8.590;2023-07-09T08:08:56;3.05;;;2.85;;
7493;SDS011;3788;49.902;8.590;2023-07-09T08:11:23;4.07;;;3.40;;
7493;SDS011;3788;49.902;8.590;2023-07-09T08:13:53;5.32;;;3.80;;
7493;SDS011;3788;49.902;8.590;2023-07-09T08:16:21;4.43;;;3.72;;
7493;SDS011;3788;49.902;8.590;2023-07-09T08:18:47;4.38;;;3.65;;
7493;SDS011;3788;49.902;8.590;2023-07-09T08:21:14;3.90;;;3.47;;
7493;SDS011;3788;49.902;8.590;2023-07-09T08:23:41;4.28;;;3.30;;
7493;SDS011;3788;49.902;8.590;2023-07-09T08:26:07;4.88;;;4.18;;
7493;SDS011;3788;49.902;8.590;2023-07-09T08:28:34;4.25;;;3.30;;
7493;SDS011;3788;49.902;8.590;2023-07-09T08:31:01;4.55;;;3.70;;
7493;SDS011;3788;49.902;8.590;2023-07-09T08:33:29;4.32;;;3.92;;
7493;SDS011;3788;49.902;8.590;2023-07-09T08:35:56;3.78;;;3.25;;
7493;SDS011;3788;49.902;8.590;2023-07-09T08:38:23;4.20;;;3.28;;
7493;SDS011;3788;49.902;8.590;2023-07-09T08:40:53;4.75;;;3.42;;
7493;SDS011;3788;49.902;8.590;2023-07-09T08:43:24;3.63;;;3.33;;
7493;SDS011;3788;49.902;8.590;2023-07-09T08:46:01;3.65;;;3.33;;
7493;SDS011;3788;49.902;8.590;2023-07-09T08:48:35;3.80;;;3.50;;
7493;SDS011;3788;49.902;8.590;2023-07-09T08:51:07;5.78;;;3.28;;
7493;SDS011;3788;49.902;8.590;2023-07-09T08:53:41;3.78;;;3.40;;
7493;SDS011;3788;49.902;8.590;2023-07-09T08:56:11;4.03;;;3.65;;
7493;SDS011;3788;49.902;8.590;2023-07-09T08:58:41;3.78;;;3.40;;
7493;SDS011;3788;49.902;8.590;2023-07-09T09:01:13;4.18;;;3.78;;
7493;SDS011;3788;49.902;8.590;2023-07-09T09:03:46;4.88;;;3.53;;
7493;SDS011;3788;49.902;8.590;2023-07-09T09:06:16;4.38;;;3.60;;
7493;SDS011;3788;49.902;8.590;2023-07-09T09:08:47;3.63;;;3.33;;
7493;SDS011;3788;49.902;8.590;2023-07-09T09:11:30;4.25;;;3.95;;
7493;SDS011;3788;49.902;8.590;2023-07-09T09:14:05;6.00;;;4.00;;
7493;SDS011;3788;49.902;8.590;2023-07-09T09:16:43;5.35;;;3.92;;
7493;SDS011;3788;49.902;8.590;2023-07-09T09:19:14;4.10;;;3.70;;
7493;SDS011;3788;49.902;8.590;2023-07-09T09:21:46;4.68;;;3.88;;
7493;SDS011;3788;49.902;8.590;2023-07-09T09:24:17;4.50;;;4.15;;
7493;SDS011;3788;49.902;8.590;2023-07-09T09:26:49;4.45;;;3.60;;
7493;SDS011;3788;49.902;8.590;2023-07-09T09:29:18;4.80;;;3.58;;
7493;SDS011;3788;49.902;8.590;2023-07-09T09:31:46;4.50;;;4.10;;
7493;SDS011;3788;49.902;8.590;2023-07-09T09:34:20;4.32;;;3.95;;
7493;SDS011;3788;49.902;8.590;2023-07-09T09:36:49;4.63;;;4.13;;
7493;SDS011;3788;49.902;8.590;2023-07-09T09:39:16;4.05;;;3.70;;
7493;SDS011;3788;49.902;8.590;2023-07-09T09:41:44;7.25;;;4.07;;
7493;SDS011;3788;49.902;8.590;2023-07-09T09:44:16;4.13;;;3.58;;
7493;SDS011;3788;49.902;8.590;2023-07-09T09:46:45;3.92;;;3.58;;
7493;SDS011;3788;49.902;8.590;2023-07-09T09:49:13;3.70;;;3.40;;
7493;SDS011;3788;49.902;8.590;2023-07-09T09:51:42;4.10;;;3.70;;
7493;SDS011;3788;49.902;8.590;2023-07-09T09:54:12;4.53;;;3.97;;
7493;SDS011;3788;49.902;8.590;2023-07-09T09:56:43;4.50;;;3.95;;
7493;SDS011;3788;49.902;8.590;2023-07-09T09:59:13;4.20;;;3.80;;
7493;SDS011;3788;49.902;8.590;2023-07-09T10:01:45;6.60;;;4.00;;
7493;SDS011;3788;49.902;8.590;2023-07-09T10:04:15;4.78;;;3.40;;
7493;SDS011;3788;49.902;8.590;2023-07-09T10:06:46;4.45;;;4.05;;
7493;SDS011;3788;49.902;8.590;2023-07-09T10:09:20;4.07;;;3.70;;
7493;SDS011;3788;49.902;8.590;2023-07-09T10:11:55;4.30;;;3.33;;
7493;SDS011;3788;49.902;8.590;2023-07-09T10:14:33;3.88;;;3.58;;
7493;SDS011;3788;49.902;8.590;2023-07-09T10:17:18;4.32;;;3.72;;
7493;SDS011;3788;49.902;8.590;2023-07-09T10:19:49;5.05;;;4.10;;
7493;SDS011;3788;49.902;8.590;2023-07-09T10:22:32;3.65;;;3.35;;
7493;SDS011;3788;49.902;8.590;2023-07-09T10:25:10;4.13;;;3.72;;
7493;SDS011;3788;49.902;8.590;2023-07-09T10:27:48;4.05;;;3.70;;
7493;SDS011;3788;49.902;8.590;2023-07-09T10:30:35;3.97;;;3.65;;
7493;SDS011;3788;49.902;8.590;2023-07-09T10:33:11;4.00;;;3.70;;
7493;SDS011;3788;49.902;8.590;2023-07-09T10:35:44;3.70;;;3.40;;
7493;SDS011;3788;49.902;8.590;2023-07-09T10:38:25;3.92;;;3.53;;
7493;SDS011;3788;49.902;8.590;2023-07-09T10:41:01;4.20;;;3.85;;
7493;SDS011;3788;49.902;8.590;2023-07-09T10:43:32;3.53;;;3.22;;
7493;SDS011;3788;49.902;8.590;2023-07-09T10:46:03;3.95;;;3.65;;
7493;SDS011;3788;49.902;8.590;2023-07-09T10:48:35;3.80;;;3.50;;
7493;SDS011;3788;49.902;8.590;2023-07-09T10:51:07;4.03;;;3.58;;
7493;SDS011;3788;49.902;8.590;2023-07-09T10:53:44;3.30;;;3.00;;
7493;SDS011;3788;49.902;8.590;2023-07-09T10:56:16;3.90;;;3.60;;
7493;SDS011;3788;49.902;8.590;2023-07-09T10:58:46;3.55;;;3.25;;
7493;SDS011;3788;49.902;8.590;2023-07-09T11:01:21;4.15;;;3.75;;
7493;SDS011;3788;49.902;8.590;2023-07-09T11:03:54;4.78;;;3.83;;
7493;SDS011;3788;49.902;8.590;2023-07-09T11:06:25;4.20;;;3.80;;
7493;SDS011;3788;49.902;8.590;2023-07-09T11:09:01;4.32;;;3.90;;
7493;SDS011;3788;49.902;8.590;2023-07-09T11:11:32;5.07;;;4.50;;
7493;SDS011;3788;49.902;8.590;2023-07-09T11:14:04;7.50;;;6.80;;
7493;SDS011;3788;49.902;8.590;2023-07-09T11:16:38;5.32;;;4.82;;
7493;SDS011;3788;49.902;8.590;2023-07-09T11:19:10;5.57;;;4.25;;
7493;SDS011;3788;49.902;8.590;2023-07-09T11:21:44;4.35;;;3.95;;
7493;SDS011;3788;49.902;8.590;2023-07-09T11:24:34;4.22;;;3.80;;
7493;SDS011;3788;49.902;8.590;2023-07-09T11:27:02;3.88;;;3.58;;
7493;SDS011;3788;49.902;8.590;2023-07-09T11:29:44;3.53;;;3.22;;
7493;SDS011;3788;49.902;8.590;2023-07-09T11:32:17;3.80;;;3.50;;
7493;SDS011;3788;49.902;8.590;2023-07-09T11:34:45;3.97;;;3.58;;
7493;SDS011;3788;49.902;8.590;2023-07-09T11:37:13;3.70;;;3.20;;
7493;SDS011;3788;49.902;8.590;2023-07-09T11:39:46;4.30;;;3.63;;
7493;SDS011;3788;49.902;8.590;2023-07-09T11:42:23;4.05;;;3.65;;
7493;SDS011;3788;49.902;8.590;2023-07-09T11:44:53;3.63;;;3.33;;
7493;SDS011;3788;49.902;8.590;2023-07-09T11:47:25;3.90;;;3.53;;
7493;SDS011;3788;49.902;8.590;2023-07-09T11:49:56;3.92;;;3.45;;
7493;SDS011;3788;49.902;8.590;2023-07-09T11:52:26;3.92;;;3.47;;
7493;SDS011;3788;49.902;8.590;2023-07-09T11:54:58;3.83;;;3.42;;
7493;SDS011;3788;49.902;8.590;2023-07-09T11:57:28;4.30;;;3.80;;
7493;SDS011;3788;49.902;8.590;2023-07-09T11:59:58;3.42;;;3.13;;
7493;SDS011;3788;49.902;8.590;2023-07-09T12:02:26;3.60;;;3.30;;
7493;SDS011;3788;49.902;8.590;2023-07-09T12:04:59;3.90;;;3.50;;
7493;SDS011;3788;49.902;8.590;2023-07-09T12:07:28;3.70;;;3.40;;
7493;SDS011;3788;49.902;8.590;2023-07-09T12:09:55;3.65;;;3.35;;
7493;SDS011;3788;49.902;8.590;2023-07-09T12:12:24;3.90;;;3.53;;
7493;SDS011;3788;49.902;8.590;2023-07-09T12:14:52;4.72;;;3.40;;
7493;SDS011;3788;49.902;8.590;2023-07-09T12:17:22;5.25;;;3.05;;
7493;SDS011;3788;49.902;8.590;2023-07-09T12:19:51;3.78;;;3.10;;
7493;SDS011;3788;49.902;8.590;2023-07-09T12:22:18;3.85;;;3.47;;
7493;SDS011;3788;49.902;8.590;2023-07-09T12:24:47;3.85;;;3.55;;
7493;SDS011;3788;49.902;8.590;2023-07-09T12:27:21;3.83;;;3.33;;
7493;SDS011;3788;49.902;8.590;2023-07-09T12:29:50;3.47;;;3.15;;
7493;SDS011;3788;49.902;8.590;2023-07-09T12:32:18;3.42;;;3.13;;
7493;SDS011;3788;49.902;8.590;2023-07-09T12:34:49;4.22;;;3.78;;
7493;SDS011;3788;49.902;8.590;2023-07-09T12:37:17;5.65;;;3.55;;
7493;SDS011;3788;49.902;8.590;2023-07-09T12:39:45;3.95;;;3.35;;
7493;SDS011;3788;49.902;8.590;2023-07-09T12:42:15;5.25;;;3.47;;
7493;SDS011;3788;49.902;8.590;2023-07-09T12:44:43;4.85;;;4.00;;
7493;SDS011;3788;49.902;8.590;2023-07-09T12:47:12;4.22;;;3.92;;
7493;SDS011;3788;49.902;8.590;2023-07-09T12:49:41;3.88;;;3.58;;
7493;SDS011;3788;49.902;8.590;2023-07-09T12:52:12;4.43;;;4.00;;
7493;SDS011;3788;49.902;8.590;2023-07-09T12:54:51;3.92;;;3.47;;
7493;SDS011;3788;49.902;8.590;2023-07-09T12:57:18;3.88;;;3.55;;
7493;SDS011;3788;49.902;8.590;2023-07-09T12:59:47;4.00;;;3.42;;
7493;SDS011;3788;49.902;8.590;2023-07-09T13:02:15;5.10;;;3.58;;
7493;SDS011;3788;49.902;8.590;2023-07-09T13:04:44;3.60;;;3.08;;
7493;SDS011;3788;49.902;8.590;2023-07-09T13:07:27;4.20;;;3.58;;
7493;SDS011;3788;49.902;8.590;2023-07-09T13:10:04;4.00;;;3.60;;
7493;SDS011;3788;49.902;8.590;2023-07-09T13:12:32;5.05;;;3.35;;
7493;SDS011;3788;49.902;8.590;2023-07-09T13:15:01;5.07;;;3.40;;
7493;SDS011;3788;49.902;8.590;2023-07-09T13:17:29;3.55;;;3.22;;
7493;SDS011;3788;49.902;8.590;2023-07-09T13:19:57;4.65;;;3.47;;
7493;SDS011;3788;49.902;8.590;2023-07-09T13:22:24;4.18;;;3.78;;
7493;SDS011;3788;49.902;8.590;2023-07-09T13:24:51;4.70;;;4.15;;
7493;SDS011;3788;49.902;8.590;2023-07-09T13:27:18;4.97;;;3.70;;
7493;SDS011;3788;49.902;8.590;2023-07-09T13:29:44;4.85;;;3.60;;
7493;SDS011;3788;49.902;8.590;2023-07-09T13:32:14;4.10;;;3.67;;
7493;SDS011;3788;49.902;8.590;2023-07-09T13:34:42;6.25;;;4.15;;
7493;SDS011;3788;49.902;8.590;2023-07-09T13:37:11;3.95;;;3.60;;
7493;SDS011;3788;49.902;8.590;2023-07-09T13:39:39;5.95;;;3.88;;
7493;SDS011;3788;49.902;8.590;2023-07-09T13:42:09;4.07;;;3.67;;
7493;SDS011;3788;49.902;8.590;2023-07-09T13:44:38;4.60;;;3.88;;
7493;SDS011;3788;49.902;8.590;2023-07-09T13:47:07;6.32;;;4.10;;
7493;SDS011;3788;49.902;8.590;2023-07-09T13:49:38;5.05;;;3.60;;
7493;SDS011;3788;49.902;8.590;2023-07-09T13:52:08;4.25;;;3.80;;
7493;SDS011;3788;49.902;8.590;2023-07-09T13:54:41;5.53;;;3.65;;
7493;SDS011;3788;49.902;8.590;2023-07-09T13:57:13;6.03;;;4.10;;
7493;SDS011;3788;49.902;8.590;2023-07-09T13:59:41;5.13;;;3.92;;
7493;SDS011;3788;49.902;8.590;2023-07-09T14:02:18;3.90;;;3.45;;
7493;SDS011;3788;49.902;8.590;2023-07-09T14:04:50;4.53;;;4.10;;
7493;SDS011;3788;49.902;8.590;2023-07-09T14:07:22;5.00;;;4.10;;
7493;SDS011;3788;49.902;8.590;2023-07-09T14:09:54;4.40;;;4.00;;
7493;SDS011;3788;49.902;8.590;2023-07-09T14:12:21;4.25;;;3.85;;
7493;SDS011;3788;49.902;8.590;2023-07-09T14:14:48;5.32;;;3.72;;
7493;SDS011;3788;49.902;8.590;2023-07-09T14:17:16;4.93;;;3.38;;
7493;SDS011;3788;49.902;8.590;2023-07-09T14:19:44;3.95;;;3.30;;
7493;SDS011;3788;49.902;8.590;2023-07-09T14:22:23;3.85;;;3.47;;
7493;SDS011;3788;49.902;8.590;2023-07-09T14:24:53;5.15;;;3.83;;
7493;SDS011;3788;49.902;8.590;2023-07-09T14:27:20;4.50;;;3.63;;
7493;SDS011;3788;49.902;8.590;2023-07-09T14:29:47;4.38;;;3.97;;
7493;SDS011;3788;49.902;8.590;2023-07-09T14:32:22;3.70;;;3.40;;
7493;SDS011;3788;49.902;8.590;2023-07-09T14:34:57;6.07;;;3.97;;
7493;SDS011;3788;49.902;8.590;2023-07-09T14:37:25;4.80;;;3.13;;
7493;SDS011;3788;49.902;8.590;2023-07-09T14:39:52;4.15;;;3.58;;
7493;SDS011;3788;49.902;8.590;2023-07-09T14:42:19;4.50;;;3.35;;
7493;SDS011;3788;49.902;8.590;2023-07-09T14:44:47;4.10;;;3.30;;
7493;SDS011;3788;49.902;8.590;2023-07-09T14:47:16;3.47;;;3.17;;
7493;SDS011;3788;49.902;8.590;2023-07-09T14:49:43;3.95;;;3.15;;
7493;SDS011;3788;49.902;8.590;2023-07-09T14:52:11;4.50;;;4.05;;
7493;SDS011;3788;49.902;8.590;2023-07-09T14:54:41;3.85;;;3.53;;
7493;SDS011;3788;49.902;8.590;2023-07-09T14:57:08;4.05;;;3.55;;
7493;SDS011;3788;49.902;8.590;2023-07-09T14:59:44;3.65;;;3.30;;
7493;SDS011;3788;49.902;8.590;2023-07-09T15:02:15;4.63;;;3.55;;
7493;SDS011;3788;49.902;8.590;2023-07-09T15:04:50;3.72;;;3.33;;
7493;SDS011;3788;49.902;8.590;2023-07-09T15:07:17;4.78;;;3.60;;
7493;SDS011;3788;49.902;8.590;2023-07-09T15:09:45;4.00;;;3.47;;
7493;SDS011;3788;49.902;8.590;2023-07-09T15:12:15;5.38;;;3.38;;
7493;SDS011;3788;49.902;8.590;2023-07-09T15:14:44;3.55;;;3.25;;
7493;SDS011;3788;49.902;8.590;2023-07-09T15:17:11;3.63;;;3.33;;
7493;SDS011;3788;49.902;8.590;2023-07-09T15:19:38;4.22;;;3.55;;
7493;SDS011;3788;49.902;8.590;2023-07-09T15:22:05;4.90;;;3.65;;
7493;SDS011;3788;49.902;8.590;2023-07-09T15:24:44;4.45;;;3.22;;
7493;SDS011;3788;49.902;8.590;2023-07-09T15:27:12;4.47;;;3.60;;
7493;SDS011;3788;49.902;8.590;2023-07-09T15:29:39;4.25;;;3.50;;